Time;durP1;ratioP1;P1;durP2;ratioP2;P2;SDS_P1;SDS_P2;PMS_P1;PMS_P2;Temp;Humidity;BMP_temperature;BMP_pressure;BME280_temperature;BME280_humidity;BME280_pressure;Samples;Min_cycle;Max_cycle;Signal;HPM_P1;HPM_P2
2022/02/01 00:01:33;;;;;;;8.10;1.45;;;;;;;5.45;71.18;100942.81;5015544;28;20049;-54
2022/02/01 00:04:04;;;;;;;6.57;1.05;;;;;;;5.47;70.88;100948.00;4996931;28;20038;-58
2022/02/01 00:07:25;;;;;;;3.45;1.52;;;;;;;5.50;71.00;100948.97;5003598;28;20041;-57
2022/02/01 00:09:27;;;;;;;5.63;1.40;;;;;;;5.50;71.57;100927.53;5013155;28;20077;-52
2022/02/01 00:12:10;;;;;;;6.07;1.60;;;;;;;5.52;71.17;100925.88;5000136;28;20054;-56
2022/02/01 00:15:13;;;;;;;8.55;1.58;;;;;;;5.56;70.94;100916.56;5007109;28;20057;-58
2022/02/01 00:17:51;;;;;;;5.13;0.80;;;;;;;5.56;70.79;100907.16;5002132;28;20050;-57
2022/02/01 00:20:38;;;;;;;5.60;1.40;;;;;;;5.58;71.28;100874.69;4999321;28;20061;-56
2022/02/01 00:36:58;;;;;;;7.93;1.40;;;;;;;5.62;71.54;100868.81;4996714;28;20092;-57
2022/02/01 00:39:31;;;;;;;5.38;0.93;;;;;;;5.66;70.66;100862.94;4997116;28;20093;-57
2022/02/01 00:41:58;;;;;;;9.18;1.35;;;;;;;5.65;71.70;100876.59;4999224;28;20049;-54
2022/02/01 00:44:25;;;;;;;3.97;1.50;;;;;;;5.69;71.50;100892.13;5000678;28;20057;-58
2022/02/01 00:46:52;;;;;;;3.15;0.82;;;;;;;5.70;71.58;100892.19;4998579;28;20045;-55
2022/02/01 00:49:18;;;;;;;5.82;2.22;;;;;;;5.73;71.46;100878.53;5001339;28;20470;-55
2022/02/01 00:51:45;;;;;;;6.88;1.50;;;;;;;5.75;71.76;100866.63;5005009;28;20047;-56
2022/02/01 00:54:12;;;;;;;3.78;0.88;;;;;;;5.75;70.99;100830.63;5003893;28;20049;-58
2022/02/01 00:56:39;;;;;;;5.45;0.63;;;;;;;5.75;71.11;100800.63;5008950;28;20053;-55
2022/02/01 00:59:06;;;;;;;6.07;1.02;;;;;;;5.75;71.47;100784.38;5007498;28;20058;-54
2022/02/01 01:01:32;;;;;;;3.45;0.88;;;;;;;5.76;71.33;100801.53;5010041;28;20069;-58
2022/02/01 01:03:59;;;;;;;7.63;1.27;;;;;;;5.77;71.18;100805.81;5007489;28;20037;-56
2022/02/01 01:06:28;;;;;;;9.13;1.20;;;;;;;5.79;71.15;100817.03;5004246;28;20049;-56
2022/02/01 01:08:55;;;;;;;12.43;1.77;;;;;;;5.81;72.43;100835.94;5002191;28;20064;-54
2022/02/01 01:11:22;;;;;;;7.78;0.90;;;;;;;5.83;72.26;100846.28;5007762;28;20096;-58
2022/02/01 01:14:20;;;;;;;6.47;1.33;;;;;;;5.86;72.30;100862.69;5008784;28;20042;-55
2022/02/01 01:44:26;;;;;;;4.03;0.98;;;;;;;6.15;71.89;100836.94;5016456;28;20137;-55
2022/02/01 01:55:14;;;;;;;4.65;0.63;;;;;;;6.26;72.83;100824.41;5018177;28;20103;-55
2022/02/01 01:57:41;;;;;;;9.50;0.98;;;;;;;6.28;72.46;100814.13;5006162;28;20068;-56
2022/02/01 02:00:20;;;;;;;4.47;1.10;;;;;;;6.27;73.27;100802.09;5004303;28;20053;-59
2022/02/01 02:02:47;;;;;;;3.22;0.88;;;;;;;6.26;72.92;100808.09;5004926;28;20096;-59
2022/02/01 02:05:14;;;;;;;5.75;1.30;;;;;;;6.28;72.80;100824.41;5005001;28;20042;-58
2022/02/01 02:07:40;;;;;;;4.57;0.98;;;;;;;6.27;72.78;100802.09;5007217;28;20049;-59
2022/02/01 02:10:08;;;;;;;4.45;1.75;;;;;;;6.29;72.24;100808.19;5006189;28;20099;-55
2022/02/01 02:12:53;;;;;;;7.00;0.82;;;;;;;6.29;73.13;100790.16;5007169;28;20143;-57
2022/02/01 02:15:35;;;;;;;6.03;1.05;;;;;;;6.28;72.80;100760.09;5005909;28;20486;-54
2022/02/01 02:18:02;;;;;;;5.60;0.65;;;;;;;6.29;72.61;100751.56;5003959;28;20053;-53
2022/02/01 02:20:49;;;;;;;3.97;0.95;;;;;;;6.27;73.77;100740.34;5008120;28;20133;-59
2022/02/01 02:23:16;;;;;;;7.60;1.10;;;;;;;6.24;73.62;100723.16;5020409;28;20053;-56
2022/02/01 02:25:43;;;;;;;7.55;1.02;;;;;;;6.25;72.49;100744.59;5018706;28;20478;-56
2022/02/01 02:28:13;;;;;;;2.28;0.85;;;;;;;6.23;72.96;100725.69;5008098;28;20491;-57
2022/02/01 02:30:42;;;;;;;6.45;1.00;;;;;;;6.23;73.82;100730.81;5006525;28;20056;-58
2022/02/01 02:33:12;;;;;;;6.43;0.60;;;;;;;6.22;73.61;100718.81;5005747;28;20101;-56
2022/02/01 02:36:03;;;;;;;6.50;0.77;;;;;;;6.17;73.31;100729.84;5006032;28;20104;-59
2022/02/01 02:38:42;;;;;;;4.97;0.68;;;;;;;6.21;73.92;100722.22;5001839;28;20119;-57
2022/02/01 02:46:53;;;;;;;6.20;0.73;;;;;;;6.19;72.87;100723.84;4993899;28;20065;-54
2022/02/01 02:49:22;;;;;;;4.70;1.02;;;;;;;6.17;73.88;100711.84;4999359;28;20050;-59
2022/02/01 02:51:49;;;;;;;9.25;0.88;;;;;;;6.19;73.35;100718.72;4996435;28;20072;-56
2022/02/01 02:54:26;;;;;;;3.47;1.33;;;;;;;6.16;75.07;100725.53;4996622;28;20100;-57
2022/02/01 02:56:56;;;;;;;;;;;;;;;6.12;74.38;100725.41;4996032;28;20121;-54
2022/02/01 02:59:24;;;;;;;4.30;0.98;;;;;;;6.19;74.46;100724.75;5002691;28;19977;-57
2022/02/01 03:01:51;;;;;;;6.75;1.02;;;;;;;6.20;74.41;100710.16;4998230;28;20588;-55
2022/02/01 03:04:21;;;;;;;7.15;0.63;;;;;;;6.21;74.31;100711.91;4997827;28;20065;-57
2022/02/01 03:06:49;;;;;;;6.07;1.17;;;;;;;6.25;73.15;100713.75;4998059;28;20038;-56
2022/02/01 03:09:16;;;;;;;6.97;0.90;;;;;;;6.25;74.34;100708.59;5001091;28;20088;-56
2022/02/01 03:11:43;;;;;;;6.97;1.65;;;;;;;6.27;73.77;100696.63;5004576;28;20049;-57
2022/02/01 03:14:48;;;;;;;3.22;0.98;;;;;;;6.30;74.29;100689.00;5003110;28;20469;-55
2022/02/01 03:17:22;;;;;;;9.45;1.27;;;;;;;6.30;74.84;100660.69;5016871;28;20502;-57
2022/02/01 03:20:00;;;;;;;11.35;1.48;;;;;;;6.33;74.83;100652.16;5014095;28;20046;-56
2022/02/01 03:22:31;;;;;;;7.97;2.00;;;;;;;6.34;74.28;100647.06;5006242;28;20421;-57
2022/02/01 03:25:00;;;;;;;3.35;1.00;;;;;;;6.36;73.50;100635.13;5005199;28;20075;-55
2022/02/01 03:27:27;;;;;;;6.18;0.82;;;;;;;6.39;74.52;100640.31;5003137;28;20563;-59
2022/02/01 03:29:55;;;;;;;3.90;1.25;;;;;;;6.40;74.11;100626.63;5001353;28;20049;-58
2022/02/01 03:32:22;;;;;;;1.88;0.70;;;;;;;6.42;74.19;100617.25;5002589;28;20121;-59
2022/02/01 03:34:52;;;;;;;2.60;0.60;;;;;;;6.43;74.17;100611.25;5002660;28;20048;-53
2022/02/01 03:37:19;;;;;;;4.18;1.00;;;;;;;6.43;74.63;100595.81;5005585;28;20050;-57
2022/02/01 03:39:45;;;;;;;5.20;0.80;;;;;;;6.46;75.21;100607.03;5002335;28;20045;-59
2022/02/01 03:42:12;;;;;;;2.53;0.82;;;;;;;6.46;74.49;100599.31;5001224;28;20611;-53
2022/02/01 03:44:39;;;;;;;4.97;1.08;;;;;;;6.49;74.85;100594.22;5001951;28;20054;-58
2022/02/01 03:47:06;;;;;;;6.30;1.30;;;;;;;6.52;74.28;100595.16;5002331;28;20101;-59
2022/02/01 03:49:38;;;;;;;2.95;0.85;;;;;;;6.53;74.27;100588.31;5001446;28;20049;-56
2022/02/01 03:52:06;;;;;;;5.55;0.95;;;;;;;6.55;75.01;100573.75;5002566;28;20159;-56
2022/02/01 03:54:34;;;;;;;6.75;1.20;;;;;;;6.56;73.77;100557.50;5005780;28;20053;-56
2022/02/01 03:57:05;;;;;;;5.53;1.70;;;;;;;6.58;74.55;100562.69;5004486;28;20486;-59
2022/02/01 03:59:32;;;;;;;6.05;1.50;;;;;;;6.57;74.97;100572.09;4999101;28;20124;-56
2022/02/01 04:02:01;;;;;;;5.22;1.13;;;;;;;6.59;74.57;100580.75;5004261;28;20050;-56
2022/02/01 04:04:31;;;;;;;6.03;0.82;;;;;;;6.62;75.03;100579.94;5001429;28;20046;-56
2022/02/01 04:06:58;;;;;;;4.43;1.08;;;;;;;6.62;74.89;100580.78;5004657;28;20049;-55
2022/02/01 04:09:26;;;;;;;5.03;1.05;;;;;;;6.65;74.11;100579.97;4999998;28;20099;-57
2022/02/01 04:11:54;;;;;;;4.03;0.90;;;;;;;6.66;74.95;100572.28;4994268;28;20077;-56
2022/02/01 04:14:25;;;;;;;4.25;0.95;;;;;;;6.68;74.35;100570.63;5000759;28;20058;-57
2022/02/01 04:16:52;;;;;;;10.48;1.38;;;;;;;6.69;74.90;100566.38;4996941;28;20054;-57
2022/02/01 04:19:19;;;;;;;5.63;1.38;;;;;;;6.67;75.48;100568.91;5003072;28;20064;-59
2022/02/01 04:21:56;;;;;;;5.32;1.25;;;;;;;6.72;75.39;100560.41;5005838;28;20053;-57
2022/02/01 04:24:23;;;;;;;5.93;1.13;;;;;;;6.72;74.51;100540.66;5002952;28;20430;-57
2022/02/01 04:26:50;;;;;;;6.80;1.20;;;;;;;6.73;74.83;100551.84;5007504;28;20548;-57
2022/02/01 04:29:16;;;;;;;4.70;1.35;;;;;;;6.77;75.72;100553.66;5006680;28;20050;-56
2022/02/01 04:31:43;;;;;;;2.85;1.20;;;;;;;6.79;76.22;100549.41;5007917;28;20050;-55
2022/02/01 04:34:10;;;;;;;6.25;1.20;;;;;;;6.80;75.46;100561.44;5005356;28;20661;-58
2022/02/01 04:36:38;;;;;;;2.30;1.05;;;;;;;6.83;76.02;100558.94;5015295;28;20220;-57
2022/02/01 04:39:05;;;;;;;5.63;1.10;;;;;;;6.84;75.62;100575.22;5007486;28;20049;-59
2022/02/01 04:41:32;;;;;;;5.47;0.90;;;;;;;6.88;76.21;100588.22;5010333;28;20050;-57
2022/02/01 04:43:59;;;;;;;2.95;1.02;;;;;;;6.88;75.86;100598.50;5006228;28;20096;-58
2022/02/01 04:46:28;;;;;;;5.18;0.85;;;;;;;6.93;75.03;100591.75;5003585;28;20136;-60
2022/02/01 04:49:00;;;;;;;5.65;1.02;;;;;;;6.96;76.39;100610.69;5002859;28;20053;-52
2022/02/01 04:51:27;;;;;;;9.00;1.27;;;;;;;7.00;74.75;100602.19;5008153;28;20049;-58
2022/02/01 04:53:55;;;;;;;3.67;1.00;;;;;;;7.02;76.33;100600.50;5008150;28;20410;-59
2022/02/01 04:56:21;;;;;;;3.63;1.83;;;;;;;7.04;75.78;100593.69;5004951;28;20437;-56
2022/02/01 04:58:48;;;;;;;5.25;1.48;;;;;;;7.09;76.34;100592.06;5005823;28;20042;-56
2022/02/01 05:01:14;;;;;;;7.85;1.30;;;;;;;7.12;74.48;100596.44;5003710;28;20135;-55
2022/02/01 05:03:41;;;;;;;6.13;0.88;;;;;;;7.12;76.03;100592.13;5003302;28;20139;-58
2022/02/01 05:06:09;;;;;;;1.73;0.60;;;;;;;7.12;75.74;100602.44;5007746;28;20101;-57
2022/02/01 05:08:35;;;;;;;4.82;1.15;;;;;;;7.18;75.46;100600.00;5003920;28;20065;-60
2022/02/01 05:11:02;;;;;;;3.45;0.73;;;;;;;7.21;75.45;100601.75;5003811;28;20071;-58
2022/02/01 05:16:20;;;;;;;5.85;1.08;;;;;;;7.24;75.88;100585.50;5020566;28;20050;-57
2022/02/01 05:18:50;;;;;;;2.20;0.73;;;;;;;7.29;75.91;100589.00;5006355;28;20049;-58
2022/02/01 05:21:21;;;;;;;1.13;0.95;;;;;;;7.30;74.97;100593.34;5004215;28;20092;-58
2022/02/01 05:23:50;;;;;;;2.17;0.73;;;;;;;7.36;74.30;100585.72;5007782;28;20112;-55
2022/02/01 05:26:18;;;;;;;2.55;0.77;;;;;;;7.37;74.71;100579.75;5006048;28;20054;-57
2022/02/01 05:28:45;;;;;;;5.10;0.85;;;;;;;7.37;74.48;100566.88;5005431;28;20096;-58
2022/02/01 05:31:12;;;;;;;2.20;0.60;;;;;;;7.41;74.38;100563.50;5004743;28;20067;-57
2022/02/01 05:33:39;;;;;;;2.90;1.30;;;;;;;7.40;75.34;100545.44;5006705;28;20475;-57
2022/02/01 05:36:07;;;;;;;1.33;0.85;;;;;;;7.42;75.39;100542.03;5000749;28;20117;-54
2022/02/01 05:38:34;;;;;;;2.17;0.90;;;;;;;7.45;74.58;100539.50;5006449;28;20112;-57
2022/02/01 05:41:02;;;;;;;4.57;0.25;;;;;;;7.45;74.60;100539.50;5005808;28;20054;-57
2022/02/01 05:43:29;;;;;;;3.42;0.88;;;;;;;7.51;75.24;100541.34;5003465;28;20499;-57
2022/02/01 05:45:57;;;;;;;1.30;0.43;;;;;;;7.49;75.90;100531.84;5003989;28;20049;-56
2022/02/01 05:48:25;;;;;;;2.40;0.63;;;;;;;7.52;74.67;100529.28;5001691;28;20049;-56
2022/02/01 05:50:56;;;;;;;0.82;0.65;;;;;;;7.53;75.18;100525.91;5005021;28;20042;-54
2022/02/01 05:53:24;;;;;;;7.57;1.05;;;;;;;7.56;76.36;100528.50;5008135;28;20077;-54
2022/02/01 05:55:51;;;;;;;1.42;0.55;;;;;;;7.59;75.49;100536.31;5002057;28;20474;-59
2022/02/01 05:58:19;;;;;;;0.60;0.25;;;;;;;7.62;75.24;100520.00;5002082;28;20065;-58
2022/02/01 06:00:46;;;;;;;2.05;0.52;;;;;;;7.65;76.09;100514.91;5005546;28;20058;-58
2022/02/01 06:03:13;;;;;;;2.95;0.60;;;;;;;7.72;74.83;100516.75;5007500;28;20529;-58
2022/02/01 06:05:41;;;;;;;0.50;0.50;;;;;;;7.70;75.22;100524.47;5008341;28;20069;-55
2022/02/01 06:08:07;;;;;;;1.08;0.35;;;;;;;7.80;75.48;100545.25;5004283;28;20095;-56
2022/02/01 06:10:34;;;;;;;1.77;0.57;;;;;;;7.83;76.08;100540.13;5007614;28;20042;-56
2022/02/01 06:13:00;;;;;;;0.73;0.43;;;;;;;7.83;74.97;100547.88;5005521;28;20100;-58
2022/02/01 06:15:29;;;;;;;1.63;0.40;;;;;;;7.89;75.03;100529.94;5009521;28;20600;-60
2022/02/01 06:17:56;;;;;;;1.35;0.63;;;;;;;7.91;75.57;100533.38;5005221;28;20050;-58
2022/02/01 06:20:24;;;;;;;3.33;0.45;;;;;;;7.92;74.33;100514.50;5005524;28;20140;-57
2022/02/01 06:22:50;;;;;;;1.02;0.32;;;;;;;7.92;75.35;100504.19;5006717;28;20042;-53
2022/02/01 06:25:27;;;;;;;0.85;0.35;;;;;;;7.91;75.37;100502.44;5006958;28;20120;-55
2022/02/01 06:27:53;;;;;;;0.82;0.35;;;;;;;7.94;74.74;100481.00;5005949;28;20070;-59
2022/02/01 06:30:20;;;;;;;3.42;0.43;;;;;;;7.91;75.56;100505.00;5005102;28;20053;-57
2022/02/01 06:32:46;;;;;;;1.63;0.40;;;;;;;7.90;74.88;100500.72;5006854;28;20057;-57
2022/02/01 06:35:13;;;;;;;1.92;0.80;;;;;;;7.89;75.68;100498.97;5003477;28;20061;-58
2022/02/01 06:37:39;;;;;;;1.23;0.40;;;;;;;7.89;75.49;100514.44;5004348;28;20046;-58
2022/02/01 06:40:07;;;;;;;1.17;0.40;;;;;;;7.88;74.45;100502.41;5003054;28;20046;-59
2022/02/01 06:42:34;;;;;;;1.80;0.45;;;;;;;7.88;74.60;100492.09;5004384;28;20577;-58
2022/02/01 06:45:02;;;;;;;0.95;0.65;;;;;;;7.85;75.43;100486.88;5001078;28;20103;-58
2022/02/01 06:47:29;;;;;;;1.20;1.08;;;;;;;7.84;75.51;100485.16;5000961;28;20129;-53
2022/02/01 06:49:55;;;;;;;0.63;0.63;;;;;;;7.81;75.68;100485.09;5004281;28;20595;-58
2022/02/01 06:52:22;;;;;;;1.30;0.40;;;;;;;7.73;75.78;100479.81;5006313;28;20048;-56
2022/02/01 06:54:49;;;;;;;1.35;0.40;;;;;;;7.74;74.99;100483.25;5004224;28;20045;-57
2022/02/01 06:57:15;;;;;;;2.08;0.47;;;;;;;7.69;75.12;100491.78;5005213;28;20100;-58
2022/02/01 06:59:42;;;;;;;0.73;0.22;;;;;;;7.66;75.58;100485.69;5003337;28;20223;-59
2022/02/01 07:02:09;;;;;;;0.50;0.20;;;;;;;7.63;76.02;100481.38;4979256;28;20082;-56
2022/02/01 07:04:38;;;;;;;1.00;0.57;;;;;;;7.58;75.96;100485.59;4981154;28;20046;-58
2022/02/01 07:07:05;;;;;;;1.98;0.32;;;;;;;7.57;75.38;100481.28;4999020;28;20041;-56
2022/02/01 07:09:33;;;;;;;2.88;0.90;;;;;;;7.56;76.80;100480.41;5003230;28;20042;-56
2022/02/01 07:12:00;;;;;;;1.05;0.45;;;;;;;7.56;75.72;100488.16;5005004;28;20084;-56
2022/02/01 07:14:27;;;;;;;0.77;0.40;;;;;;;7.56;76.88;100500.16;5004169;28;20047;-58
2022/02/01 07:16:53;;;;;;;2.38;0.20;;;;;;;7.53;76.94;100511.28;5006635;28;20050;-53
2022/02/01 07:19:20;;;;;;;1.13;0.22;;;;;;;7.54;75.78;100522.47;5005591;28;20073;-59
2022/02/01 07:21:48;;;;;;;0.38;0.30;;;;;;;7.55;76.63;100508.72;5001524;28;20048;-57
2022/02/01 07:24:18;;;;;;;3.72;0.60;;;;;;;7.61;76.34;100520.88;5007005;28;20053;-57
2022/02/01 07:26:54;;;;;;;0.35;0.35;;;;;;;7.62;76.32;100520.88;5000389;28;20046;-56
2022/02/01 07:29:21;;;;;;;1.30;0.40;;;;;;;7.65;76.89;100533.84;5008762;28;20049;-58
2022/02/01 07:31:48;;;;;;;0.73;0.30;;;;;;;7.71;76.94;100518.47;5002666;28;20054;-56
2022/02/01 07:34:15;;;;;;;0.85;0.47;;;;;;;7.75;75.95;100536.56;5005785;28;20042;-57
2022/02/01 07:36:43;;;;;;;1.48;0.65;;;;;;;7.81;76.46;100526.38;5003517;28;20057;-57
2022/02/01 07:39:11;;;;;;;1.42;1.20;;;;;;;7.82;76.26;100522.94;5002644;28;20639;-57
2022/02/01 07:41:38;;;;;;;3.75;0.57;;;;;;;7.92;76.17;100529.09;5003951;28;20545;-60
2022/02/01 07:44:05;;;;;;;1.60;0.82;;;;;;;7.91;76.40;100528.22;5004087;28;20104;-53
2022/02/01 07:46:33;;;;;;;1.50;0.45;;;;;;;7.91;75.61;100535.97;5001386;28;20752;-58
2022/02/01 07:48:59;;;;;;;0.65;0.65;;;;;;;7.88;75.83;100541.09;4996104;28;20057;-57
2022/02/01 07:51:26;;;;;;;3.28;0.50;;;;;;;7.91;76.39;100537.69;5003159;28;20092;-57
2022/02/01 07:53:53;;;;;;;0.60;0.30;;;;;;;7.91;76.64;100538.53;5002506;28;20080;-59
2022/02/01 07:56:19;;;;;;;1.08;0.32;;;;;;;7.89;77.21;100535.09;5002231;28;20077;-58
2022/02/01 07:58:46;;;;;;;4.18;1.45;;;;;;;7.97;77.08;100537.78;4999742;28;20556;-57
2022/02/01 08:01:12;;;;;;;5.88;0.90;;;;;;;8.00;76.03;100526.66;4997641;28;20053;-58
2022/02/01 08:03:39;;;;;;;5.13;2.83;;;;;;;8.04;76.85;100520.69;4996816;28;20414;-58
2022/02/01 08:06:06;;;;;;;2.20;0.88;;;;;;;8.05;77.03;100509.53;5001759;28;20060;-58
2022/02/01 08:08:32;;;;;;;3.05;1.15;;;;;;;8.08;76.41;100504.41;5000232;28;20042;-57
2022/02/01 08:11:02;;;;;;;1.67;0.85;;;;;;;8.10;75.50;100502.72;5000578;28;20168;-53
2022/02/01 08:16:36;;;;;;;3.88;2.20;;;;;;;8.24;76.43;100497.75;5012040;28;20371;-57
2022/02/01 08:19:11;;;;;;;1.52;0.75;;;;;;;8.33;75.27;100499.59;5015693;28;20054;-57
2022/02/01 08:21:51;;;;;;;2.30;1.25;;;;;;;8.39;75.34;100515.19;5000678;28;20137;-55
2022/02/01 08:24:18;;;;;;;2.97;1.25;;;;;;;8.45;75.50;100520.41;4998015;28;20093;-55
2022/02/01 08:26:45;;;;;;;3.90;1.83;;;;;;;8.44;74.71;100508.34;5001408;28;20057;-59
2022/02/01 08:29:15;;;;;;;1.90;0.93;;;;;;;8.44;74.45;100513.53;5002753;28;20058;-60
2022/02/01 08:31:45;;;;;;;3.90;0.70;;;;;;;8.41;75.97;100508.31;4998430;28;20586;-56
2022/02/01 08:34:12;;;;;;;2.97;1.35;;;;;;;8.43;75.48;100511.78;4999506;28;20046;-55
2022/02/01 08:36:39;;;;;;;2.72;1.52;;;;;;;8.42;75.93;100520.41;4998643;28;20457;-57
2022/02/01 08:39:05;;;;;;;4.82;1.38;;;;;;;8.42;75.65;100528.13;5003436;28;20099;-57
2022/02/01 08:41:32;;;;;;;1.52;0.82;;;;;;;8.44;74.95;100535.91;5008131;28;20475;-58
2022/02/01 08:43:59;;;;;;;12.82;5.68;;;;;;;8.42;75.54;100535.88;4998538;28;20054;-57
2022/02/01 08:46:26;;;;;;;37.90;20.77;;;;;;;8.43;75.81;100542.78;5002385;28;20147;-54
2022/02/01 08:48:53;;;;;;;49.63;24.55;;;;;;;8.40;76.45;100550.47;5003664;28;20061;-57
2022/02/01 08:51:23;;;;;;;57.45;30.27;;;;;;;8.42;75.33;100564.28;5005152;28;20050;-56
2022/02/01 08:54:00;;;;;;;32.50;20.15;;;;;;;8.42;76.19;100560.81;5004189;28;20041;-58
2022/02/01 08:59:27;;;;;;;11.73;6.20;;;;;;;8.46;75.76;100542.81;5016220;28;20057;-58
2022/02/01 09:01:54;;;;;;;21.73;12.43;;;;;;;8.52;75.61;100543.75;4999685;28;20050;-60
2022/02/01 09:04:22;;;;;;;4.72;2.45;;;;;;;8.57;75.84;100549.84;5002802;28;20060;-58
2022/02/01 09:06:49;;;;;;;2.30;1.48;;;;;;;8.60;75.52;100549.91;5002096;28;20449;-57
2022/02/01 09:09:16;;;;;;;1.10;0.40;;;;;;;8.63;76.20;100549.94;5002328;28;20136;-58
2022/02/01 09:11:42;;;;;;;2.90;0.73;;;;;;;8.67;75.34;100532.78;5010072;28;20058;-60
2022/02/01 09:14:09;;;;;;;1.98;0.30;;;;;;;8.73;76.16;100546.66;5007500;28;20057;-57
2022/02/01 09:16:36;;;;;;;2.40;0.65;;;;;;;8.77;74.98;100536.34;5008230;28;20099;-59
2022/02/01 09:19:03;;;;;;;0.70;0.50;;;;;;;8.77;76.16;100515.69;5006998;28;20038;-59
2022/02/01 09:21:29;;;;;;;2.53;0.93;;;;;;;8.80;75.43;100519.19;5004370;28;20074;-59
2022/02/01 09:23:56;;;;;;;1.15;0.63;;;;;;;8.88;75.15;100529.59;5007296;28;20286;-58
2022/02/01 09:26:22;;;;;;;1.42;0.80;;;;;;;8.87;75.36;100527.88;5007040;28;20057;-58
2022/02/01 09:29:10;;;;;;;1.50;0.43;;;;;;;8.93;74.51;100533.13;4988905;28;20061;-57
2022/02/01 09:31:37;;;;;;;1.77;0.52;;;;;;;9.02;74.51;100536.66;4983893;28;20133;-60
2022/02/01 09:34:06;;;;;;;1.92;0.65;;;;;;;9.24;74.71;100532.59;4985436;28;20042;-57
2022/02/01 09:36:33;;;;;;;1.92;0.75;;;;;;;9.41;74.82;100522.41;4986792;28;20094;-57
2022/02/01 09:39:00;;;;;;;2.30;1.80;;;;;;;9.66;73.77;100529.53;4991561;28;20641;-58
2022/02/01 09:41:28;;;;;;;0.85;0.40;;;;;;;9.95;73.12;100522.00;5005414;28;20053;-56
2022/02/01 09:43:55;;;;;;;1.95;1.65;;;;;;;10.20;72.45;100522.16;5005698;28;20453;-55
2022/02/01 09:46:22;;;;;;;3.08;2.00;;;;;;;10.58;71.72;100527.59;5008102;28;20100;-58
2022/02/01 09:48:49;;;;;;;4.00;1.05;;;;;;;10.92;70.94;100527.75;5006593;28;20096;-56
2022/02/01 09:51:16;;;;;;;12.05;2.42;;;;;;;11.17;71.02;100533.00;5007183;28;20096;-57
2022/02/01 09:53:43;;;;;;;11.00;2.72;;;;;;;11.39;70.23;100527.88;5011518;28;20050;-58
2022/02/01 09:56:10;;;;;;;4.47;1.17;;;;;;;11.73;69.77;100537.41;4992282;28;20503;-59
2022/02/01 09:58:38;;;;;;;3.10;0.77;;;;;;;12.01;67.83;100533.06;4988439;28;20129;-60
2022/02/01 10:01:25;;;;;;;1.80;0.70;;;;;;;12.14;68.04;100522.69;4985611;28;20042;-57
2022/02/01 10:04:02;;;;;;;1.95;0.82;;;;;;;12.23;65.96;100517.50;4992235;28;20120;-56
2022/02/01 10:06:41;;;;;;;1.95;0.70;;;;;;;12.43;66.63;100499.25;5009340;28;20049;-60
2022/02/01 10:09:27;;;;;;;2.25;1.27;;;;;;;13.01;65.86;100501.63;5007908;28;20447;-57
2022/02/01 10:11:54;;;;;;;1.80;0.82;;;;;;;13.58;64.08;100497.78;5008935;28;20646;-59
2022/02/01 10:14:26;;;;;;;0.90;0.50;;;;;;;14.09;63.29;100495.63;5005875;28;20062;-56
2022/02/01 10:16:56;;;;;;;3.53;0.40;;;;;;;14.51;62.04;100479.50;5008716;28;20116;-57
2022/02/01 10:19:23;;;;;;;1.35;0.73;;;;;;;14.83;60.46;100480.88;5004877;28;20564;-58
2022/02/01 10:21:55;;;;;;;0.90;0.50;;;;;;;15.16;59.44;100489.09;5006290;28;20050;-55
2022/02/01 10:24:41;;;;;;;1.17;0.45;;;;;;;15.45;57.26;100463.44;5005639;28;20104;-60
2022/02/01 10:27:13;;;;;;;1.50;0.65;;;;;;;15.98;58.31;100472.16;5004428;28;20046;-60
2022/02/01 10:30:08;;;;;;;0.88;0.38;;;;;;;16.39;56.19;100473.13;5009066;28;20046;-59
2022/02/01 10:34:14;;;;;;;2.08;1.35;;;;;;;16.59;55.66;100474.47;5021222;28;20061;-55
2022/02/01 10:35:37;;;;;;;1.42;1.00;;;;;;;16.70;55.14;100476.84;5003389;28;20487;-58
2022/02/01 10:38:09;;;;;;;1.50;0.55;;;;;;;16.78;55.29;100479.25;5007096;28;20092;-56
2022/02/01 10:40:44;;;;;;;2.28;0.82;;;;;;;16.81;53.41;100471.34;5002021;28;20061;-58
2022/02/01 10:43:29;;;;;;;3.47;1.27;;;;;;;16.83;53.74;100472.19;5014151;28;20636;-53
2022/02/01 10:46:04;;;;;;;3.38;1.15;;;;;;;16.76;54.03;100473.22;5006400;28;20087;-54
2022/02/01 10:48:32;;;;;;;2.45;1.00;;;;;;;16.70;54.15;100476.84;5006963;28;20060;-56
2022/02/01 10:51:12;;;;;;;1.42;0.55;;;;;;;16.52;54.59;100488.53;5002790;28;21301;-53
2022/02/01 10:53:40;;;;;;;3.42;1.17;;;;;;;16.42;54.82;100493.09;5005567;28;20194;-58
2022/02/01 10:56:14;;;;;;;1.23;0.40;;;;;;;16.23;53.73;100482.13;5004134;28;21880;-62
2022/02/01 10:58:45;;;;;;;1.58;0.90;;;;;;;16.14;54.04;100494.47;5002436;28;20049;-54
2022/02/01 11:01:12;;;;;;;2.05;0.73;;;;;;;15.94;54.13;100498.28;5004865;28;20050;-56
2022/02/01 11:03:42;;;;;;;2.15;0.70;;;;;;;15.78;54.85;100504.69;5005484;28;20045;-56
2022/02/01 11:06:10;;;;;;;1.08;0.45;;;;;;;15.55;55.58;100511.16;5005731;28;20068;-58
2022/02/01 11:08:39;;;;;;;1.42;0.55;;;;;;;15.38;56.04;100509.66;5009461;28;20852;-58
2022/02/01 11:11:06;;;;;;;0.90;0.45;;;;;;;15.07;55.87;100507.50;5005621;28;20052;-55
2022/02/01 11:13:39;;;;;;;1.75;0.40;;;;;;;14.90;56.31;100518.19;5006436;28;20050;-58
2022/02/01 11:16:08;;;;;;;1.42;0.45;;;;;;;14.74;57.07;100517.47;5005820;28;20109;-58
2022/02/01 11:18:35;;;;;;;1.83;0.63;;;;;;;14.59;57.53;100521.97;5004852;28;20045;-55
2022/02/01 11:21:11;;;;;;;3.35;0.95;;;;;;;14.38;57.24;100508.31;5006603;28;20057;-56
2022/02/01 11:23:55;;;;;;;2.05;1.45;;;;;;;14.35;57.88;100521.38;5005706;28;20395;-56
2022/02/01 11:26:35;;;;;;;21.00;5.85;;;;;;;14.22;57.65;100510.22;5004808;28;20100;-56
2022/02/01 11:29:28;;;;;;;90.72;27.42;;;;;;;14.09;57.96;100509.47;5004086;28;20034;-55
2022/02/01 11:31:57;;;;;;;12.52;4.90;;;;;;;13.97;58.63;100509.59;5003836;28;20096;-57
2022/02/01 11:34:29;;;;;;;112.30;27.02;;;;;;;13.91;59.11;100499.25;5007015;28;20045;-58
2022/02/01 11:37:03;;;;;;;6.13;2.75;;;;;;;13.80;57.91;100509.75;5004535;28;20119;-58
2022/02/01 11:39:31;;;;;;;6.78;1.98;;;;;;;13.85;59.28;100495.81;5004578;28;20053;-53
2022/02/01 11:42:00;;;;;;;3.35;0.90;;;;;;;13.88;58.99;100490.59;5002537;28;20057;-56
2022/02/01 11:44:33;;;;;;;2.75;0.73;;;;;;;13.85;59.19;100485.41;5007915;28;20073;-59
2022/02/01 11:47:20;;;;;;;3.08;1.30;;;;;;;13.84;60.01;100483.69;5004873;28;20053;-58
2022/02/01 11:49:54;;;;;;;7.63;2.50;;;;;;;13.85;59.34;100468.94;5004920;28;20053;-57
2022/02/01 11:52:23;;;;;;;14.93;4.45;;;;;;;13.75;59.37;100478.59;5005462;28;20042;-57
2022/02/01 11:55:00;;;;;;;17.67;4.95;;;;;;;13.76;59.64;100469.88;5001526;28;20046;-57
2022/02/01 11:57:50;;;;;;;56.67;16.35;;;;;;;13.68;59.22;100477.75;5004716;28;20048;-58
2022/02/01 12:00:22;;;;;;;15.43;5.88;;;;;;;13.63;59.10;100458.72;5002436;28;20203;-57
2022/02/01 12:02:52;;;;;;;18.60;7.38;;;;;;;13.57;59.23;100446.63;5008510;28;20081;-59
2022/02/01 12:05:28;;;;;;;9.98;2.80;;;;;;;13.66;59.80;100437.88;5003822;28;20058;-59
2022/02/01 12:08:11;;;;;;;7.78;3.00;;;;;;;13.69;58.90;100427.44;5004544;28;20125;-57
2022/02/01 12:10:58;;;;;;;1.00;0.57;;;;;;;13.70;59.17;100443.91;5002964;28;20100;-59
2022/02/01 12:13:26;;;;;;;2.00;1.10;;;;;;;13.74;59.14;100430.84;5004221;28;20096;-57
2022/02/01 12:16:01;;;;;;;1.95;1.20;;;;;;;13.70;59.21;100434.38;5002894;28;20562;-57
2022/02/01 12:19:06;;;;;;;0.88;0.50;;;;;;;13.70;57.89;100438.69;5004198;28;20128;-57
2022/02/01 12:21:45;;;;;;;2.13;1.10;;;;;;;13.73;57.80;100436.06;5015996;28;20054;-57
2022/02/01 12:24:12;;;;;;;0.93;0.43;;;;;;;13.70;57.63;100433.50;5005634;28;20046;-55
2022/02/01 12:26:41;;;;;;;0.63;0.55;;;;;;;13.61;57.08;100424.88;5003880;28;20058;-54
2022/02/01 12:29:10;;;;;;;0.75;0.43;;;;;;;13.56;57.10;100426.69;5005447;28;20043;-57
2022/02/01 12:31:39;;;;;;;0.85;0.40;;;;;;;13.51;57.26;100423.25;5005148;28;20054;-56
2022/02/01 12:34:12;;;;;;;1.77;0.45;;;;;;;13.41;57.35;100421.59;5005257;28;20046;-56
2022/02/01 12:36:43;;;;;;;2.05;0.45;;;;;;;13.31;57.36;100416.44;5004998;28;20510;-57
2022/02/01 12:39:20;;;;;;;0.70;0.55;;;;;;;13.25;57.50;100421.72;5005051;28;20049;-56
2022/02/01 12:47:25;;;;;;;0.63;0.55;;;;;;;13.14;57.44;100421.78;5021929;28;20058;-53
2022/02/01 12:50:14;;;;;;;0.43;0.43;;;;;;;13.14;58.18;100416.56;5008196;28;20597;-57
2022/02/01 12:52:41;;;;;;;0.57;0.30;;;;;;;13.15;57.64;100404.44;5007959;28;20054;-59
2022/02/01 12:55:12;;;;;;;0.35;0.35;;;;;;;13.04;57.40;100394.97;5006671;28;20049;-58
2022/02/01 12:58:04;;;;;;;0.73;0.35;;;;;;;12.99;57.01;100394.16;5006363;28;20049;-59